sensor_id;sensor_type;location;lat;lon;timestamp;P1;durP1;ratioP1;P2;durP2;ratioP2
18905;SDS011;9585;51.018;4.282;2022-11-15T00:00:08;20.63;;;15.70;;
18905;SDS011;9585;51.018;4.282;2022-11-15T00:02:36;22.70;;;16.08;;
18905;SDS011;9585;51.018;4.282;2022-11-15T00:05:03;18.70;;;14.30;;
18905;SDS011;9585;51.018;4.282;2022-11-15T00:07:32;20.10;;;15.60;;
18905;SDS011;9585;51.018;4.282;2022-11-15T00:09:59;20.35;;;15.48;;
18905;SDS011;9585;51.018;4.282;2022-11-15T00:12:26;18.80;;;14.30;;
18905;SDS011;9585;51.018;4.282;2022-11-15T00:14:57;21.27;;;15.35;;
18905;SDS011;9585;51.018;4.282;2022-11-15T00:17:24;18.10;;;14.50;;
18905;SDS011;9585;51.018;4.282;2022-11-15T00:19:54;21.38;;;15.88;;
18905;SDS011;9585;51.018;4.282;2022-11-15T00:22:22;19.40;;;14.30;;
18905;SDS011;9585;51.018;4.282;2022-11-15T00:24:50;19.42;;;14.77;;
18905;SDS011;9585;51.018;4.282;2022-11-15T00:27:18;15.93;;;13.77;;
18905;SDS011;9585;51.018;4.282;2022-11-15T00:29:45;16.45;;;13.30;;
18905;SDS011;9585;51.018;4.282;2022-11-15T00:32:12;18.58;;;14.63;;
18905;SDS011;9585;51.018;4.282;2022-11-15T00:34:39;18.35;;;14.18;;
18905;SDS011;9585;51.018;4.282;2022-11-15T00:37:06;16.98;;;13.60;;
18905;SDS011;9585;51.018;4.282;2022-11-15T00:39:34;17.90;;;14.18;;
18905;SDS011;9585;51.018;4.282;2022-11-15T00:42:02;16.63;;;13.80;;
18905;SDS011;9585;51.018;4.282;2022-11-15T00:44:30;15.82;;;12.68;;
18905;SDS011;9585;51.018;4.282;2022-11-15T00:46:57;18.80;;;13.70;;
18905;SDS011;9585;51.018;4.282;2022-11-15T00:49:24;18.45;;;13.32;;
18905;SDS011;9585;51.018;4.282;2022-11-15T00:51:51;17.48;;;13.02;;
18905;SDS011;9585;51.018;4.282;2022-11-15T00:54:18;19.85;;;13.57;;
18905;SDS011;9585;51.018;4.282;2022-11-15T00:56:46;17.48;;;12.70;;
18905;SDS011;9585;51.018;4.282;2022-11-15T00:59:14;15.77;;;12.43;;
18905;SDS011;9585;51.018;4.282;2022-11-15T01:01:41;18.73;;;12.52;;
18905;SDS011;9585;51.018;4.282;2022-11-15T01:04:09;14.57;;;11.27;;
18905;SDS011;9585;51.018;4.282;2022-11-15T01:06:36;14.90;;;11.10;;
18905;SDS011;9585;51.018;4.282;2022-11-15T01:09:03;16.63;;;11.65;;
18905;SDS011;9585;51.018;4.282;2022-11-15T01:11:30;14.63;;;11.40;;
18905;SDS011;9585;51.018;4.282;2022-11-15T01:13:57;15.45;;;11.55;;
18905;SDS011;9585;51.018;4.282;2022-11-15T01:16:26;15.27;;;11.50;;
18905;SDS011;9585;51.018;4.282;2022-11-15T01:18:53;15.30;;;11.80;;
18905;SDS011;9585;51.018;4.282;2022-11-15T01:21:20;14.35;;;10.70;;
18905;SDS011;9585;51.018;4.282;2022-11-15T01:23:47;13.88;;;10.10;;
18905;SDS011;9585;51.018;4.282;2022-11-15T01:26:15;15.05;;;11.45;;
18905;SDS011;9585;51.018;4.282;2022-11-15T01:28:42;15.00;;;11.20;;
18905;SDS011;9585;51.018;4.282;2022-11-15T01:31:11;13.18;;;11.23;;
18905;SDS011;9585;51.018;4.282;2022-11-15T01:33:42;13.60;;;10.43;;
18905;SDS011;9585;51.018;4.282;2022-11-15T01:36:10;15.35;;;11.88;;
18905;SDS011;9585;51.018;4.282;2022-11-15T01:38:39;14.45;;;10.38;;
18905;SDS011;9585;51.018;4.282;2022-11-15T01:41:11;16.17;;;11.70;;
18905;SDS011;9585;51.018;4.282;2022-11-15T01:43:44;16.17;;;10.77;;
18905;SDS011;9585;51.018;4.282;2022-11-15T01:46:22;15.02;;;12.10;;
18905;SDS011;9585;51.018;4.282;2022-11-15T01:48:55;13.40;;;10.75;;
18905;SDS011;9585;51.018;4.282;2022-11-15T01:51:26;13.43;;;11.00;;
18905;SDS011;9585;51.018;4.282;2022-11-15T01:54:00;15.75;;;11.90;;
18905;SDS011;9585;51.018;4.282;2022-11-15T01:56:31;13.95;;;11.40;;
18905;SDS011;9585;51.018;4.282;2022-11-15T01:59:03;17.10;;;11.50;;
18905;SDS011;9585;51.018;4.282;2022-11-15T02:01:33;16.27;;;10.75;;
18905;SDS011;9585;51.018;4.282;2022-11-15T02:04:03;14.80;;;11.07;;
18905;SDS011;9585;51.018;4.282;2022-11-15T02:06:34;12.93;;;11.05;;
18905;SDS011;9585;51.018;4.282;2022-11-15T02:09:02;14.30;;;11.20;;
18905;SDS011;9585;51.018;4.282;2022-11-15T02:11:29;13.73;;;10.50;;
18905;SDS011;9585;51.018;4.282;2022-11-15T02:13:57;12.27;;;10.23;;
18905;SDS011;9585;51.018;4.282;2022-11-15T02:16:27;12.35;;;10.30;;
18905;SDS011;9585;51.018;4.282;2022-11-15T02:19:07;14.23;;;10.77;;
18905;SDS011;9585;51.018;4.282;2022-11-15T02:21:51;13.75;;;9.75;;
18905;SDS011;9585;51.018;4.282;2022-11-15T02:24:37;13.15;;;10.10;;
18905;SDS011;9585;51.018;4.282;2022-11-15T02:30:38;14.15;;;9.73;;
18905;SDS011;9585;51.018;4.282;2022-11-15T02:33:12;13.63;;;9.40;;
18905;SDS011;9585;51.018;4.282;2022-11-15T02:35:50;14.32;;;9.32;;
18905;SDS011;9585;51.018;4.282;2022-11-15T02:38:22;13.20;;;9.82;;
18905;SDS011;9585;51.018;4.282;2022-11-15T02:40:56;12.25;;;9.23;;
18905;SDS011;9585;51.018;4.282;2022-11-15T02:43:29;12.73;;;9.88;;
18905;SDS011;9585;51.018;4.282;2022-11-15T02:46:22;13.38;;;10.02;;
18905;SDS011;9585;51.018;4.282;2022-11-15T02:49:10;11.90;;;8.95;;
18905;SDS011;9585;51.018;4.282;2022-11-15T02:51:39;13.73;;;9.63;;
18905;SDS011;9585;51.018;4.282;2022-11-15T02:54:10;13.68;;;9.68;;
18905;SDS011;9585;51.018;4.282;2022-11-15T02:56:40;14.43;;;10.18;;
18905;SDS011;9585;51.018;4.282;2022-11-15T02:59:13;14.23;;;10.15;;
18905;SDS011;9585;51.018;4.282;2022-11-15T03:01:55;12.07;;;8.88;;
18905;SDS011;9585;51.018;4.282;2022-11-15T03:04:35;11.63;;;8.88;;
18905;SDS011;9585;51.018;4.282;2022-11-15T03:07:10;11.40;;;8.40;;
18905;SDS011;9585;51.018;4.282;2022-11-15T03:09:42;12.32;;;8.77;;
18905;SDS011;9585;51.018;4.282;2022-11-15T03:12:20;10.45;;;8.52;;
18905;SDS011;9585;51.018;4.282;2022-11-15T03:14:54;12.55;;;8.55;;
18905;SDS011;9585;51.018;4.282;2022-11-15T03:17:29;12.43;;;8.82;;
18905;SDS011;9585;51.018;4.282;2022-11-15T03:20:01;13.63;;;8.52;;
18905;SDS011;9585;51.018;4.282;2022-11-15T03:22:33;10.48;;;8.50;;
18905;SDS011;9585;51.018;4.282;2022-11-15T03:25:04;11.60;;;8.40;;
18905;SDS011;9585;51.018;4.282;2022-11-15T03:27:35;9.60;;;7.63;;
18905;SDS011;9585;51.018;4.282;2022-11-15T03:30:07;13.95;;;8.02;;
18905;SDS011;9585;51.018;4.282;2022-11-15T03:32:38;12.30;;;7.60;;
18905;SDS011;9585;51.018;4.282;2022-11-15T03:35:11;11.15;;;7.60;;
18905;SDS011;9585;51.018;4.282;2022-11-15T03:37:43;11.75;;;7.25;;
18905;SDS011;9585;51.018;4.282;2022-11-15T03:40:15;9.77;;;6.57;;
18905;SDS011;9585;51.018;4.282;2022-11-15T03:42:44;10.93;;;6.57;;
18905;SDS011;9585;51.018;4.282;2022-11-15T03:45:19;10.52;;;7.20;;
18905;SDS011;9585;51.018;4.282;2022-11-15T03:47:53;9.93;;;6.45;;
18905;SDS011;9585;51.018;4.282;2022-11-15T03:50:26;9.55;;;6.95;;
18905;SDS011;9585;51.018;4.282;2022-11-15T03:52:54;12.38;;;6.95;;
18905;SDS011;9585;51.018;4.282;2022-11-15T03:55:22;9.50;;;6.78;;
18905;SDS011;9585;51.018;4.282;2022-11-15T03:57:51;9.82;;;7.00;;
18905;SDS011;9585;51.018;4.282;2022-11-15T04:00:22;10.20;;;6.90;;
18905;SDS011;9585;51.018;4.282;2022-11-15T04:02:49;9.10;;;6.47;;
18905;SDS011;9585;51.018;4.282;2022-11-15T04:05:17;10.98;;;7.00;;
18905;SDS011;9585;51.018;4.282;2022-11-15T04:07:44;10.07;;;6.18;;
18905;SDS011;9585;51.018;4.282;2022-11-15T04:10:12;7.60;;;5.90;;
18905;SDS011;9585;51.018;4.282;2022-11-15T04:12:40;8.38;;;5.88;;
18905;SDS011;9585;51.018;4.282;2022-11-15T04:15:09;7.10;;;5.22;;
18905;SDS011;9585;51.018;4.282;2022-11-15T04:17:38;9.43;;;6.07;;
18905;SDS011;9585;51.018;4.282;2022-11-15T04:20:08;6.65;;;5.47;;
18905;SDS011;9585;51.018;4.282;2022-11-15T04:22:57;10.45;;;5.82;;
18905;SDS011;9585;51.018;4.282;2022-11-15T04:25:43;10.77;;;5.82;;
18905;SDS011;9585;51.018;4.282;2022-11-15T04:28:11;7.60;;;5.70;;
18905;SDS011;9585;51.018;4.282;2022-11-15T04:30:38;12.75;;;6.03;;
18905;SDS011;9585;51.018;4.282;2022-11-15T04:33:05;8.82;;;5.60;;
18905;SDS011;9585;51.018;4.282;2022-11-15T04:35:32;8.82;;;6.18;;
18905;SDS011;9585;51.018;4.282;2022-11-15T04:38:02;8.73;;;5.95;;
18905;SDS011;9585;51.018;4.282;2022-11-15T04:40:29;7.45;;;5.22;;
18905;SDS011;9585;51.018;4.282;2022-11-15T04:42:56;9.65;;;5.82;;
18905;SDS011;9585;51.018;4.282;2022-11-15T04:45:23;10.05;;;5.57;;
18905;SDS011;9585;51.018;4.282;2022-11-15T04:47:50;8.57;;;5.80;;
18905;SDS011;9585;51.018;4.282;2022-11-15T04:50:18;8.60;;;5.45;;
18905;SDS011;9585;51.018;4.282;2022-11-15T04:52:50;7.78;;;5.45;;
18905;SDS011;9585;51.018;4.282;2022-11-15T04:55:20;8.52;;;5.25;;
18905;SDS011;9585;51.018;4.282;2022-11-15T04:57:47;7.90;;;5.35;;
18905;SDS011;9585;51.018;4.282;2022-11-15T05:00:23;8.45;;;5.40;;
18905;SDS011;9585;51.018;4.282;2022-11-15T05:02:50;7.25;;;5.40;;
18905;SDS011;9585;51.018;4.282;2022-11-15T05:05:35;7.40;;;4.53;;
18905;SDS011;9585;51.018;4.282;2022-11-15T05:08:02;8.52;;;4.68;;
18905;SDS011;9585;51.018;4.282;2022-11-15T05:10:31;7.15;;;4.65;;
18905;SDS011;9585;51.018;4.282;2022-11-15T05:12:58;10.20;;;4.65;;
18905;SDS011;9585;51.018;4.282;2022-11-15T05:15:26;7.15;;;4.75;;
18905;SDS011;9585;51.018;4.282;2022-11-15T05:17:56;8.75;;;4.80;;
18905;SDS011;9585;51.018;4.282;2022-11-15T05:20:25;7.57;;;4.28;;
18905;SDS011;9585;51.018;4.282;2022-11-15T05:22:52;5.57;;;3.75;;
18905;SDS011;9585;51.018;4.282;2022-11-15T05:25:20;6.50;;;3.95;;
18905;SDS011;9585;51.018;4.282;2022-11-15T05:27:49;6.57;;;3.90;;
18905;SDS011;9585;51.018;4.282;2022-11-15T05:30:16;5.82;;;4.20;;
18905;SDS011;9585;51.018;4.282;2022-11-15T05:32:43;8.18;;;4.80;;
18905;SDS011;9585;51.018;4.282;2022-11-15T05:35:12;9.38;;;5.05;;
18905;SDS011;9585;51.018;4.282;2022-11-15T05:37:44;6.78;;;4.50;;
18905;SDS011;9585;51.018;4.282;2022-11-15T05:40:12;6.75;;;3.97;;
18905;SDS011;9585;51.018;4.282;2022-11-15T05:42:40;6.07;;;4.22;;
18905;SDS011;9585;51.018;4.282;2022-11-15T05:45:08;7.65;;;4.18;;
18905;SDS011;9585;51.018;4.282;2022-11-15T05:47:36;6.68;;;3.92;;
18905;SDS011;9585;51.018;4.282;2022-11-15T05:50:05;4.53;;;3.47;;
18905;SDS011;9585;51.018;4.282;2022-11-15T05:52:34;4.30;;;3.42;;
18905;SDS011;9585;51.018;4.282;2022-11-15T05:55:03;5.30;;;3.30;;
18905;SDS011;9585;51.018;4.282;2022-11-15T05:57:33;6.28;;;3.22;;
18905;SDS011;9585;51.018;4.282;2022-11-15T06:00:01;5.95;;;3.40;;
18905;SDS011;9585;51.018;4.282;2022-11-15T06:02:30;9.75;;;3.58;;
18905;SDS011;9585;51.018;4.282;2022-11-15T06:04:57;5.55;;;3.15;;
18905;SDS011;9585;51.018;4.282;2022-11-15T06:07:25;4.13;;;3.10;;
18905;SDS011;9585;51.018;4.282;2022-11-15T06:09:52;4.30;;;2.85;;
18905;SDS011;9585;51.018;4.282;2022-11-15T06:12:19;7.75;;;3.53;;
18905;SDS011;9585;51.018;4.282;2022-11-15T06:14:46;9.55;;;3.80;;
18905;SDS011;9585;51.018;4.282;2022-11-15T06:17:14;6.90;;;3.55;;
18905;SDS011;9585;51.018;4.282;2022-11-15T06:19:42;7.32;;;3.78;;
18905;SDS011;9585;51.018;4.282;2022-11-15T06:22:10;7.05;;;4.03;;
18905;SDS011;9585;51.018;4.282;2022-11-15T06:24:37;8.35;;;4.13;;
18905;SDS011;9585;51.018;4.282;2022-11-15T06:27:04;9.05;;;5.40;;
18905;SDS011;9585;51.018;4.282;2022-11-15T06:29:31;7.63;;;5.28;;
18905;SDS011;9585;51.018;4.282;2022-11-15T06:31:59;7.55;;;5.18;;
18905;SDS011;9585;51.018;4.282;2022-11-15T06:34:26;10.63;;;5.72;;
18905;SDS011;9585;51.018;4.282;2022-11-15T06:36:55;8.23;;;6.00;;
18905;SDS011;9585;51.018;4.282;2022-11-15T06:39:22;8.55;;;5.50;;
18905;SDS011;9585;51.018;4.282;2022-11-15T06:41:49;9.48;;;5.57;;
18905;SDS011;9585;51.018;4.282;2022-11-15T06:44:17;7.18;;;4.63;;
18905;SDS011;9585;51.018;4.282;2022-11-15T06:46:44;8.70;;;5.28;;
18905;SDS011;9585;51.018;4.282;2022-11-15T06:49:11;7.47;;;4.70;;
18905;SDS011;9585;51.018;4.282;2022-11-15T06:51:38;9.00;;;5.28;;
18905;SDS011;9585;51.018;4.282;2022-11-15T06:54:07;9.93;;;5.13;;
18905;SDS011;9585;51.018;4.282;2022-11-15T06:56:34;10.30;;;5.07;;
18905;SDS011;9585;51.018;4.282;2022-11-15T06:59:01;10.18;;;5.13;;
18905;SDS011;9585;51.018;4.282;2022-11-15T07:01:29;6.18;;;4.90;;
18905;SDS011;9585;51.018;4.282;2022-11-15T07:03:56;6.78;;;4.50;;
18905;SDS011;9585;51.018;4.282;2022-11-15T07:06:23;7.22;;;4.25;;
18905;SDS011;9585;51.018;4.282;2022-11-15T07:08:50;6.90;;;4.18;;
18905;SDS011;9585;51.018;4.282;2022-11-15T07:11:19;8.93;;;4.90;;
18905;SDS011;9585;51.018;4.282;2022-11-15T07:13:47;10.38;;;4.00;;
18905;SDS011;9585;51.018;4.282;2022-11-15T07:16:14;6.53;;;4.10;;
18905;SDS011;9585;51.018;4.282;2022-11-15T07:18:41;5.80;;;3.88;;
18905;SDS011;9585;51.018;4.282;2022-11-15T07:21:09;7.50;;;3.92;;
18905;SDS011;9585;51.018;4.282;2022-11-15T07:23:38;7.40;;;4.50;;
18905;SDS011;9585;51.018;4.282;2022-11-15T07:26:06;8.98;;;4.38;;
18905;SDS011;9585;51.018;4.282;2022-11-15T07:28:35;8.40;;;4.10;;
18905;SDS011;9585;51.018;4.282;2022-11-15T07:31:03;7.18;;;4.13;;
18905;SDS011;9585;51.018;4.282;2022-11-15T07:33:31;9.05;;;4.32;;
18905;SDS011;9585;51.018;4.282;2022-11-15T07:35:59;7.55;;;4.30;;
18905;SDS011;9585;51.018;4.282;2022-11-15T07:38:28;7.97;;;4.50;;
18905;SDS011;9585;51.018;4.282;2022-11-15T07:40:55;8.65;;;4.50;;
18905;SDS011;9585;51.018;4.282;2022-11-15T07:43:23;7.18;;;4.18;;
18905;SDS011;9585;51.018;4.282;2022-11-15T07:45:54;6.07;;;3.90;;
18905;SDS011;9585;51.018;4.282;2022-11-15T07:48:21;5.20;;;4.13;;
18905;SDS011;9585;51.018;4.282;2022-11-15T07:50:49;8.73;;;5.20;;
18905;SDS011;9585;51.018;4.282;2022-11-15T07:53:16;8.57;;;5.45;;
18905;SDS011;9585;51.018;4.282;2022-11-15T07:55:43;5.03;;;3.88;;
18905;SDS011;9585;51.018;4.282;2022-11-15T07:58:11;7.53;;;4.35;;
18905;SDS011;9585;51.018;4.282;2022-11-15T08:00:38;5.55;;;3.60;;
18905;SDS011;9585;51.018;4.282;2022-11-15T08:03:07;5.10;;;3.50;;
18905;SDS011;9585;51.018;4.282;2022-11-15T08:05:36;9.23;;;3.50;;
18905;SDS011;9585;51.018;4.282;2022-11-15T08:08:04;3.50;;;3.05;;
18905;SDS011;9585;51.018;4.282;2022-11-15T08:10:32;6.07;;;2.80;;
18905;SDS011;9585;51.018;4.282;2022-11-15T08:13:00;6.25;;;2.75;;
18905;SDS011;9585;51.018;4.282;2022-11-15T08:15:29;14.82;;;6.47;;
18905;SDS011;9585;51.018;4.282;2022-11-15T08:17:57;6.55;;;3.35;;
18905;SDS011;9585;51.018;4.282;2022-11-15T08:20:27;5.65;;;3.00;;
18905;SDS011;9585;51.018;4.282;2022-11-15T08:22:55;10.82;;;3.45;;
18905;SDS011;9585;51.018;4.282;2022-11-15T08:25:23;6.60;;;2.50;;
18905;SDS011;9585;51.018;4.282;2022-11-15T08:27:51;4.30;;;2.33;;
18905;SDS011;9585;51.018;4.282;2022-11-15T08:30:19;5.40;;;2.20;;
18905;SDS011;9585;51.018;4.282;2022-11-15T08:32:46;2.78;;;2.10;;
18905;SDS011;9585;51.018;4.282;2022-11-15T08:35:14;4.50;;;1.90;;
18905;SDS011;9585;51.018;4.282;2022-11-15T08:37:43;6.78;;;2.30;;
18905;SDS011;9585;51.018;4.282;2022-11-15T08:40:10;3.50;;;1.80;;
18905;SDS011;9585;51.018;4.282;2022-11-15T08:42:39;5.00;;;2.00;;
18905;SDS011;9585;51.018;4.282;2022-11-15T08:45:07;3.80;;;2.03;;
18905;SDS011;9585;51.018;4.282;2022-11-15T08:47:35;3.95;;;2.15;;
18905;SDS011;9585;51.018;4.282;2022-11-15T08:50:02;4.80;;;2.22;;
18905;SDS011;9585;51.018;4.282;2022-11-15T08:52:30;6.53;;;2.85;;
18905;SDS011;9585;51.018;4.282;2022-11-15T08:54:58;5.75;;;2.35;;
18905;SDS011;9585;51.018;4.282;2022-11-15T08:57:27;4.43;;;2.33;;
18905;SDS011;9585;51.018;4.282;2022-11-15T08:59:55;7.80;;;2.80;;
18905;SDS011;9585;51.018;4.282;2022-11-15T09:02:22;5.65;;;2.05;;
18905;SDS011;9585;51.018;4.282;2022-11-15T09:04:50;3.92;;;2.08;;
18905;SDS011;9585;51.018;4.282;2022-11-15T09:07:17;6.90;;;2.80;;
18905;SDS011;9585;51.018;4.282;2022-11-15T09:09:44;5.03;;;1.88;;
18905;SDS011;9585;51.018;4.282;2022-11-15T09:12:13;4.82;;;2.15;;
18905;SDS011;9585;51.018;4.282;2022-11-15T09:14:41;7.53;;;2.60;;
18905;SDS011;9585;51.018;4.282;2022-11-15T09:17:08;5.53;;;2.38;;
18905;SDS011;9585;51.018;4.282;2022-11-15T09:19:36;3.53;;;1.75;;
18905;SDS011;9585;51.018;4.282;2022-11-15T09:22:05;6.03;;;1.42;;
18905;SDS011;9585;51.018;4.282;2022-11-15T09:24:33;5.85;;;1.55;;
18905;SDS011;9585;51.018;4.282;2022-11-15T09:27:00;4.55;;;2.28;;
18905;SDS011;9585;51.018;4.282;2022-11-15T09:29:29;5.35;;;2.63;;
18905;SDS011;9585;51.018;4.282;2022-11-15T09:31:56;7.25;;;3.47;;
18905;SDS011;9585;51.018;4.282;2022-11-15T09:34:24;5.85;;;1.90;;
18905;SDS011;9585;51.018;4.282;2022-11-15T09:36:51;8.10;;;2.50;;
18905;SDS011;9585;51.018;4.282;2022-11-15T09:39:18;3.88;;;1.50;;
18905;SDS011;9585;51.018;4.282;2022-11-15T09:41:50;3.35;;;1.73;;
18905;SDS011;9585;51.018;4.282;2022-11-15T09:44:33;8.75;;;3.25;;
18905;SDS011;9585;51.018;4.282;2022-11-15T09:47:18;5.43;;;1.50;;
18905;SDS011;9585;51.018;4.282;2022-11-15T09:50:00;3.25;;;1.75;;
18905;SDS011;9585;51.018;4.282;2022-11-15T09:52:34;6.88;;;1.92;;
18905;SDS011;9585;51.018;4.282;2022-11-15T09:55:03;4.38;;;1.63;;
18905;SDS011;9585;51.018;4.282;2022-11-15T09:57:37;5.13;;;2.00;;
18905;SDS011;9585;51.018;4.282;2022-11-15T10:02:46;4.47;;;2.15;;
18905;SDS011;9585;51.018;4.282;2022-11-15T10:05:31;5.88;;;1.70;;
18905;SDS011;9585;51.018;4.282;2022-11-15T10:08:05;6.65;;;2.70;;
18905;SDS011;9585;51.018;4.282;2022-11-15T10:10:39;6.18;;;2.08;;
18905;SDS011;9585;51.018;4.282;2022-11-15T10:13:09;4.53;;;1.92;;
18905;SDS011;9585;51.018;4.282;2022-11-15T10:15:44;9.50;;;2.80;;
18905;SDS011;9585;51.018;4.282;2022-11-15T10:18:14;6.72;;;1.88;;
18905;SDS011;9585;51.018;4.282;2022-11-15T10:20:46;3.67;;;1.67;;
18905;SDS011;9585;51.018;4.282;2022-11-15T10:23:16;4.45;;;1.58;;
18905;SDS011;9585;51.018;4.282;2022-11-15T10:25:45;5.22;;;1.63;;
18905;SDS011;9585;51.018;4.282;2022-11-15T10:28:14;3.08;;;1.40;;
18905;SDS011;9585;51.018;4.282;2022-11-15T10:30:45;3.90;;;1.33;;
18905;SDS011;9585;51.018;4.282;2022-11-15T10:33:18;4.72;;;1.40;;
18905;SDS011;9585;51.018;4.282;2022-11-15T10:38:56;3.75;;;1.60;;
18905;SDS011;9585;51.018;4.282;2022-11-15T10:44:12;7.70;;;2.15;;
18905;SDS011;9585;51.018;4.282;2022-11-15T10:49:53;7.05;;;1.88;;
18905;SDS011;9585;51.018;4.282;2022-11-15T10:52:32;6.80;;;1.40;;
18905;SDS011;9585;51.018;4.282;2022-11-15T10:55:03;8.07;;;1.50;;
18905;SDS011;9585;51.018;4.282;2022-11-15T10:57:48;4.78;;;2.00;;
18905;SDS011;9585;51.018;4.282;2022-11-15T11:00:26;4.10;;;1.42;;
18905;SDS011;9585;51.018;4.282;2022-11-15T11:02:58;5.93;;;1.75;;
18905;SDS011;9585;51.018;4.282;2022-11-15T11:05:28;4.82;;;1.35;;
18905;SDS011;9585;51.018;4.282;2022-11-15T11:07:57;6.70;;;1.70;;
18905;SDS011;9585;51.018;4.282;2022-11-15T11:10:26;7.63;;;2.40;;
18905;SDS011;9585;51.018;4.282;2022-11-15T11:12:54;7.45;;;2.72;;
18905;SDS011;9585;51.018;4.282;2022-11-15T11:15:22;6.10;;;2.20;;
18905;SDS011;9585;51.018;4.282;2022-11-15T11:18:01;4.35;;;1.80;;
18905;SDS011;9585;51.018;4.282;2022-11-15T11:20:36;7.20;;;2.13;;
18905;SDS011;9585;51.018;4.282;2022-11-15T11:23:18;6.70;;;3.30;;
18905;SDS011;9585;51.018;4.282;2022-11-15T11:25:56;5.80;;;2.35;;
18905;SDS011;9585;51.018;4.282;2022-11-15T11:28:36;6.18;;;2.00;;
18905;SDS011;9585;51.018;4.282;2022-11-15T11:31:17;3.65;;;2.03;;
18905;SDS011;9585;51.018;4.282;2022-11-15T11:33:55;5.72;;;2.50;;
18905;SDS011;9585;51.018;4.282;2022-11-15T11:36:31;7.25;;;2.90;;
18905;SDS011;9585;51.018;4.282;2022-11-15T11:39:11;7.90;;;2.72;;
18905;SDS011;9585;51.018;4.282;2022-11-15T11:41:49;8.48;;;2.88;;
18905;SDS011;9585;51.018;4.282;2022-11-15T11:44:30;5.22;;;1.50;;
18905;SDS011;9585;51.018;4.282;2022-11-15T11:47:03;5.18;;;1.33;;
18905;SDS011;9585;51.018;4.282;2022-11-15T11:49:38;3.55;;;1.20;;
18905;SDS011;9585;51.018;4.282;2022-11-15T11:52:12;5.18;;;1.40;;
18905;SDS011;9585;51.018;4.282;2022-11-15T11:54:46;5.65;;;1.42;;
18905;SDS011;9585;51.018;4.282;2022-11-15T11:57:24;7.32;;;1.25;;
18905;SDS011;9585;51.018;4.282;2022-11-15T12:00:00;4.10;;;1.65;;
18905;SDS011;9585;51.018;4.282;2022-11-15T12:02:31;4.53;;;1.52;;
18905;SDS011;9585;51.018;4.282;2022-11-15T12:05:08;5.72;;;1.90;;
18905;SDS011;9585;51.018;4.282;2022-11-15T12:07:38;4.95;;;1.65;;
18905;SDS011;9585;51.018;4.282;2022-11-15T12:10:12;4.45;;;1.40;;
18905;SDS011;9585;51.018;4.282;2022-11-15T12:12:49;2.67;;;1.10;;
18905;SDS011;9585;51.018;4.282;2022-11-15T12:15:22;4.38;;;2.20;;
18905;SDS011;9585;51.018;4.282;2022-11-15T12:17:52;6.85;;;1.52;;
18905;SDS011;9585;51.018;4.282;2022-11-15T12:20:25;4.20;;;1.40;;
18905;SDS011;9585;51.018;4.282;2022-11-15T12:22:56;3.20;;;1.02;;
18905;SDS011;9585;51.018;4.282;2022-11-15T12:25:28;3.60;;;1.23;;
18905;SDS011;9585;51.018;4.282;2022-11-15T12:27:59;5.57;;;1.83;;
18905;SDS011;9585;51.018;4.282;2022-11-15T12:30:41;7.15;;;2.83;;
18905;SDS011;9585;51.018;4.282;2022-11-15T12:33:33;4.50;;;2.35;;
18905;SDS011;9585;51.018;4.282;2022-11-15T12:36:05;8.35;;;3.17;;
18905;SDS011;9585;51.018;4.282;2022-11-15T12:38:55;4.75;;;1.40;;
18905;SDS011;9585;51.018;4.282;2022-11-15T12:41:25;5.38;;;1.70;;
18905;SDS011;9585;51.018;4.282;2022-11-15T12:43:53;5.00;;;2.10;;
18905;SDS011;9585;51.018;4.282;2022-11-15T12:52:12;6.20;;;1.95;;
18905;SDS011;9585;51.018;4.282;2022-11-15T12:54:55;5.53;;;2.60;;
18905;SDS011;9585;51.018;4.282;2022-11-15T12:57:29;6.40;;;2.10;;
18905;SDS011;9585;51.018;4.282;2022-11-15T13:03:16;5.90;;;1.83;;
18905;SDS011;9585;51.018;4.282;2022-11-15T13:05:56;4.03;;;1.80;;
18905;SDS011;9585;51.018;4.282;2022-11-15T13:08:44;4.55;;;2.10;;
18905;SDS011;9585;51.018;4.282;2022-11-15T13:17:25;3.13;;;1.48;;
18905;SDS011;9585;51.018;4.282;2022-11-15T13:19:58;3.35;;;1.70;;
18905;SDS011;9585;51.018;4.282;2022-11-15T13:22:29;2.85;;;1.40;;
18905;SDS011;9585;51.018;4.282;2022-11-15T13:28:23;3.10;;;1.27;;
18905;SDS011;9585;51.018;4.282;2022-11-15T13:30:55;4.47;;;1.38;;
18905;SDS011;9585;51.018;4.282;2022-11-15T13:33:25;3.58;;;1.52;;
18905;SDS011;9585;51.018;4.282;2022-11-15T13:35:57;5.03;;;1.38;;
18905;SDS011;9585;51.018;4.282;2022-11-15T13:38:27;2.97;;;1.25;;
18905;SDS011;9585;51.018;4.282;2022-11-15T13:40:58;2.70;;;1.20;;
18905;SDS011;9585;51.018;4.282;2022-11-15T13:43:28;3.33;;;1.40;;
18905;SDS011;9585;51.018;4.282;2022-11-15T13:46:06;3.13;;;1.30;;
18905;SDS011;9585;51.018;4.282;2022-11-15T13:48:37;3.03;;;1.42;;
18905;SDS011;9585;51.018;4.282;2022-11-15T13:51:04;4.35;;;1.50;;
18905;SDS011;9585;51.018;4.282;2022-11-15T13:53:35;4.07;;;1.60;;
18905;SDS011;9585;51.018;4.282;2022-11-15T13:56:08;5.30;;;1.67;;
18905;SDS011;9585;51.018;4.282;2022-11-15T13:58:37;2.67;;;1.20;;
18905;SDS011;9585;51.018;4.282;2022-11-15T14:01:05;4.22;;;1.98;;
18905;SDS011;9585;51.018;4.282;2022-11-15T14:03:34;3.17;;;1.70;;
18905;SDS011;9585;51.018;4.282;2022-11-15T14:06:13;3.13;;;1.75;;
18905;SDS011;9585;51.018;4.282;2022-11-15T14:08:57;2.92;;;1.60;;
18905;SDS011;9585;51.018;4.282;2022-11-15T14:11:28;3.35;;;1.98;;
18905;SDS011;9585;51.018;4.282;2022-11-15T14:14:01;4.65;;;2.53;;
18905;SDS011;9585;51.018;4.282;2022-11-15T14:16:37;2.28;;;1.30;;
18905;SDS011;9585;51.018;4.282;2022-11-15T14:19:08;4.32;;;1.92;;
18905;SDS011;9585;51.018;4.282;2022-11-15T14:21:37;3.40;;;1.33;;
18905;SDS011;9585;51.018;4.282;2022-11-15T14:24:34;3.40;;;2.10;;
18905;SDS011;9585;51.018;4.282;2022-11-15T14:27:16;3.53;;;1.90;;
18905;SDS011;9585;51.018;4.282;2022-11-15T14:29:46;1.92;;;1.00;;
18905;SDS011;9585;51.018;4.282;2022-11-15T14:32:14;2.28;;;1.08;;
18905;SDS011;9585;51.018;4.282;2022-11-15T14:34:44;2.30;;;1.30;;
18905;SDS011;9585;51.018;4.282;2022-11-15T14:37:20;2.40;;;1.20;;
18905;SDS011;9585;51.018;4.282;2022-11-15T14:39:49;2.42;;;1.10;;
18905;SDS011;9585;51.018;4.282;2022-11-15T14:42:19;3.05;;;1.17;;
18905;SDS011;9585;51.018;4.282;2022-11-15T14:44:47;3.33;;;1.20;;
18905;SDS011;9585;51.018;4.282;2022-11-15T14:47:15;3.55;;;1.50;;
18905;SDS011;9585;51.018;4.282;2022-11-15T14:49:42;3.58;;;1.33;;
18905;SDS011;9585;51.018;4.282;2022-11-15T14:52:21;1.73;;;1.30;;
18905;SDS011;9585;51.018;4.282;2022-11-15T14:54:52;2.08;;;1.20;;
18905;SDS011;9585;51.018;4.282;2022-11-15T14:57:21;1.30;;;1.10;;
18905;SDS011;9585;51.018;4.282;2022-11-15T14:59:49;3.30;;;1.30;;
18905;SDS011;9585;51.018;4.282;2022-11-15T15:02:17;3.38;;;1.30;;
18905;SDS011;9585;51.018;4.282;2022-11-15T15:04:45;2.97;;;2.38;;
18905;SDS011;9585;51.018;4.282;2022-11-15T15:07:13;3.28;;;1.70;;
18905;SDS011;9585;51.018;4.282;2022-11-15T15:09:40;3.28;;;1.50;;
18905;SDS011;9585;51.018;4.282;2022-11-15T15:12:13;2.42;;;1.60;;
18905;SDS011;9585;51.018;4.282;2022-11-15T15:14:44;3.22;;;1.40;;
18905;SDS011;9585;51.018;4.282;2022-11-15T15:17:12;3.03;;;1.70;;
18905;SDS011;9585;51.018;4.282;2022-11-15T15:19:39;2.80;;;1.95;;
18905;SDS011;9585;51.018;4.282;2022-11-15T15:22:09;5.40;;;4.22;;
18905;SDS011;9585;51.018;4.282;2022-11-15T15:24:40;3.35;;;2.90;;
18905;SDS011;9585;51.018;4.282;2022-11-15T15:27:09;7.20;;;6.50;;
18905;SDS011;9585;51.018;4.282;2022-11-15T15:29:37;2.30;;;2.10;;
18905;SDS011;9585;51.018;4.282;2022-11-15T15:32:06;2.80;;;2.15;;
18905;SDS011;9585;51.018;4.282;2022-11-15T15:34:33;3.28;;;1.65;;
18905;SDS011;9585;51.018;4.282;2022-11-15T15:37:07;2.08;;;1.45;;
18905;SDS011;9585;51.018;4.282;2022-11-15T15:39:49;2.53;;;1.70;;
18905;SDS011;9585;51.018;4.282;2022-11-15T15:42:17;3.67;;;1.90;;
18905;SDS011;9585;51.018;4.282;2022-11-15T15:44:44;2.70;;;2.00;;
18905;SDS011;9585;51.018;4.282;2022-11-15T15:47:14;1.92;;;1.67;;
18905;SDS011;9585;51.018;4.282;2022-11-15T15:49:44;2.05;;;1.45;;